sensor_id;sensor_type;location;lat;lon;timestamp;temperature;humidity
4354;DHT22;11018;51.258;6.806;2024-01-06T00:00:56;7.80;80.00
4354;DHT22;11018;51.258;6.806;2024-01-06T00:03:22;7.90;79.30
4354;DHT22;11018;51.258;6.806;2024-01-06T00:05:47;8.00;78.00
4354;DHT22;11018;51.258;6.806;2024-01-06T00:08:13;8.00;78.10
4354;DHT22;11018;51.258;6.806;2024-01-06T00:10:38;8.00;78.40
4354;DHT22;11018;51.258;6.806;2024-01-06T00:13:04;7.90;79.20
4354;DHT22;11018;51.258;6.806;2024-01-06T00:15:29;7.80;80.50
4354;DHT22;11018;51.258;6.806;2024-01-06T00:17:55;7.80;80.30
4354;DHT22;11018;51.258;6.806;2024-01-06T00:20:20;7.90;82.00
4354;DHT22;11018;51.258;6.806;2024-01-06T00:22:46;7.80;81.20
4354;DHT22;11018;51.258;6.806;2024-01-06T00:25:11;7.90;81.10
4354;DHT22;11018;51.258;6.806;2024-01-06T00:27:37;7.90;80.30
4354;DHT22;11018;51.258;6.806;2024-01-06T00:30:03;8.00;80.00
4354;DHT22;11018;51.258;6.806;2024-01-06T00:32:28;7.90;80.60
4354;DHT22;11018;51.258;6.806;2024-01-06T00:34:54;7.90;80.40
4354;DHT22;11018;51.258;6.806;2024-01-06T00:37:20;8.00;80.20
4354;DHT22;11018;51.258;6.806;2024-01-06T00:39:45;8.00;80.30
4354;DHT22;11018;51.258;6.806;2024-01-06T00:42:11;7.90;80.20
4354;DHT22;11018;51.258;6.806;2024-01-06T00:44:37;7.90;80.80
4354;DHT22;11018;51.258;6.806;2024-01-06T00:47:03;8.00;80.10
4354;DHT22;11018;51.258;6.806;2024-01-06T00:49:28;8.10;79.50
4354;DHT22;11018;51.258;6.806;2024-01-06T00:51:54;8.10;78.50
4354;DHT22;11018;51.258;6.806;2024-01-06T00:54:19;8.10;78.20
4354;DHT22;11018;51.258;6.806;2024-01-06T00:56:45;8.20;77.80
4354;DHT22;11018;51.258;6.806;2024-01-06T00:59:10;8.20;77.20
4354;DHT22;11018;51.258;6.806;2024-01-06T01:01:36;8.20;76.80
4354;DHT22;11018;51.258;6.806;2024-01-06T01:04:01;8.30;76.50
4354;DHT22;11018;51.258;6.806;2024-01-06T01:06:27;8.30;76.10
4354;DHT22;11018;51.258;6.806;2024-01-06T01:08:52;8.20;76.90
4354;DHT22;11018;51.258;6.806;2024-01-06T01:11:19;8.10;78.20
4354;DHT22;11018;51.258;6.806;2024-01-06T01:13:44;8.10;79.50
4354;DHT22;11018;51.258;6.806;2024-01-06T01:16:10;8.20;79.30
4354;DHT22;11018;51.258;6.806;2024-01-06T01:18:35;8.10;78.50
4354;DHT22;11018;51.258;6.806;2024-01-06T01:21:01;8.10;79.60
4354;DHT22;11018;51.258;6.806;2024-01-06T01:23:27;8.30;77.30
4354;DHT22;11018;51.258;6.806;2024-01-06T01:25:53;8.30;76.30
4354;DHT22;11018;51.258;6.806;2024-01-06T01:28:19;8.40;75.20
4354;DHT22;11018;51.258;6.806;2024-01-06T01:30:44;8.30;75.30
4354;DHT22;11018;51.258;6.806;2024-01-06T01:33:13;8.40;75.60
4354;DHT22;11018;51.258;6.806;2024-01-06T01:35:41;8.30;75.80
4354;DHT22;11018;51.258;6.806;2024-01-06T01:38:07;8.30;76.20
4354;DHT22;11018;51.258;6.806;2024-01-06T01:40:33;8.20;78.20
4354;DHT22;11018;51.258;6.806;2024-01-06T01:42:59;8.30;77.40
4354;DHT22;11018;51.258;6.806;2024-01-06T01:45:24;8.30;77.60
4354;DHT22;11018;51.258;6.806;2024-01-06T01:47:50;8.20;78.10
4354;DHT22;11018;51.258;6.806;2024-01-06T01:50:16;8.20;79.70
4354;DHT22;11018;51.258;6.806;2024-01-06T01:52:42;8.20;79.20
4354;DHT22;11018;51.258;6.806;2024-01-06T01:55:08;8.20;79.20
4354;DHT22;11018;51.258;6.806;2024-01-06T01:57:34;8.20;79.60
4354;DHT22;11018;51.258;6.806;2024-01-06T02:00:00;8.20;79.40
4354;DHT22;11018;51.258;6.806;2024-01-06T02:02:26;8.20;79.20
4354;DHT22;11018;51.258;6.806;2024-01-06T02:04:54;8.20;80.00
4354;DHT22;11018;51.258;6.806;2024-01-06T02:07:20;8.30;79.30
4354;DHT22;11018;51.258;6.806;2024-01-06T02:09:45;8.40;77.10
4354;DHT22;11018;51.258;6.806;2024-01-06T02:12:11;8.40;76.60
4354;DHT22;11018;51.258;6.806;2024-01-06T02:14:37;8.40;77.10
4354;DHT22;11018;51.258;6.806;2024-01-06T02:17:02;8.30;78.00
4354;DHT22;11018;51.258;6.806;2024-01-06T02:19:28;8.40;78.80
4354;DHT22;11018;51.258;6.806;2024-01-06T02:21:53;8.40;78.20
4354;DHT22;11018;51.258;6.806;2024-01-06T02:24:20;8.30;79.10
4354;DHT22;11018;51.258;6.806;2024-01-06T02:26:46;8.30;80.00
4354;DHT22;11018;51.258;6.806;2024-01-06T02:29:11;8.30;79.20
4354;DHT22;11018;51.258;6.806;2024-01-06T02:31:37;8.30;78.50
4354;DHT22;11018;51.258;6.806;2024-01-06T02:34:02;8.30;79.50
4354;DHT22;11018;51.258;6.806;2024-01-06T02:36:28;8.20;80.90
4354;DHT22;11018;51.258;6.806;2024-01-06T02:38:53;8.20;80.30
4354;DHT22;11018;51.258;6.806;2024-01-06T02:41:19;8.20;81.00
4354;DHT22;11018;51.258;6.806;2024-01-06T02:43:44;8.20;81.20
4354;DHT22;11018;51.258;6.806;2024-01-06T02:46:10;8.20;80.70
4354;DHT22;11018;51.258;6.806;2024-01-06T02:48:36;8.20;79.90
4354;DHT22;11018;51.258;6.806;2024-01-06T02:51:01;8.20;80.20
4354;DHT22;11018;51.258;6.806;2024-01-06T02:53:27;8.20;79.70
4354;DHT22;11018;51.258;6.806;2024-01-06T02:55:52;8.20;80.40
4354;DHT22;11018;51.258;6.806;2024-01-06T02:58:18;8.10;81.40
4354;DHT22;11018;51.258;6.806;2024-01-06T03:00:43;8.00;82.30
4354;DHT22;11018;51.258;6.806;2024-01-06T03:03:09;8.10;83.30
4354;DHT22;11018;51.258;6.806;2024-01-06T03:05:35;8.10;83.40
4354;DHT22;11018;51.258;6.806;2024-01-06T03:08:02;8.00;83.90
4354;DHT22;11018;51.258;6.806;2024-01-06T03:10:28;8.10;83.80
4354;DHT22;11018;51.258;6.806;2024-01-06T03:12:53;8.30;81.40
4354;DHT22;11018;51.258;6.806;2024-01-06T03:15:19;8.40;77.40
4354;DHT22;11018;51.258;6.806;2024-01-06T03:17:44;8.30;77.80
4354;DHT22;11018;51.258;6.806;2024-01-06T03:20:10;8.20;79.80
4354;DHT22;11018;51.258;6.806;2024-01-06T03:22:36;8.20;79.70
4354;DHT22;11018;51.258;6.806;2024-01-06T03:25:02;8.10;81.30
4354;DHT22;11018;51.258;6.806;2024-01-06T03:27:28;8.10;80.80
4354;DHT22;11018;51.258;6.806;2024-01-06T03:29:53;8.00;81.90
4354;DHT22;11018;51.258;6.806;2024-01-06T03:32:19;8.00;82.40
4354;DHT22;11018;51.258;6.806;2024-01-06T03:34:44;8.10;82.20
4354;DHT22;11018;51.258;6.806;2024-01-06T03:37:10;8.00;82.00
4354;DHT22;11018;51.258;6.806;2024-01-06T03:39:35;8.00;81.40
4354;DHT22;11018;51.258;6.806;2024-01-06T03:42:01;7.90;81.10
4354;DHT22;11018;51.258;6.806;2024-01-06T03:44:28;7.90;81.70
4354;DHT22;11018;51.258;6.806;2024-01-06T03:46:56;7.90;81.80
4354;DHT22;11018;51.258;6.806;2024-01-06T03:49:23;7.90;81.80
4354;DHT22;11018;51.258;6.806;2024-01-06T03:51:49;7.70;77.50
4354;DHT22;11018;51.258;6.806;2024-01-06T03:54:14;7.60;73.90
4354;DHT22;11018;51.258;6.806;2024-01-06T03:56:40;7.40;69.00
4354;DHT22;11018;51.258;6.806;2024-01-06T03:59:05;7.30;70.00
4354;DHT22;11018;51.258;6.806;2024-01-06T04:01:31;7.30;72.60
4354;DHT22;11018;51.258;6.806;2024-01-06T04:04:00;7.30;70.20
4354;DHT22;11018;51.258;6.806;2024-01-06T04:06:26;7.10;69.90
4354;DHT22;11018;51.258;6.806;2024-01-06T04:08:52;7.10;69.10
4354;DHT22;11018;51.258;6.806;2024-01-06T04:11:20;7.10;68.60
4354;DHT22;11018;51.258;6.806;2024-01-06T04:13:45;7.00;67.20
4354;DHT22;11018;51.258;6.806;2024-01-06T04:16:11;6.90;65.80
4354;DHT22;11018;51.258;6.806;2024-01-06T04:18:37;6.90;66.20
4354;DHT22;11018;51.258;6.806;2024-01-06T04:21:02;6.90;64.30
4354;DHT22;11018;51.258;6.806;2024-01-06T04:23:28;6.90;65.50
4354;DHT22;11018;51.258;6.806;2024-01-06T04:25:53;6.90;65.20
4354;DHT22;11018;51.258;6.806;2024-01-06T04:28:19;6.90;65.90
4354;DHT22;11018;51.258;6.806;2024-01-06T04:30:45;6.90;64.80
4354;DHT22;11018;51.258;6.806;2024-01-06T04:33:10;6.90;65.00
4354;DHT22;11018;51.258;6.806;2024-01-06T04:35:36;6.90;64.80
4354;DHT22;11018;51.258;6.806;2024-01-06T04:38:01;6.90;65.30
4354;DHT22;11018;51.258;6.806;2024-01-06T04:40:27;6.90;65.60
4354;DHT22;11018;51.258;6.806;2024-01-06T04:42:53;6.90;65.70
4354;DHT22;11018;51.258;6.806;2024-01-06T04:45:18;7.00;65.50
4354;DHT22;11018;51.258;6.806;2024-01-06T04:47:45;6.90;65.00
4354;DHT22;11018;51.258;6.806;2024-01-06T04:50:10;6.90;66.30
4354;DHT22;11018;51.258;6.806;2024-01-06T04:52:36;6.90;66.50
4354;DHT22;11018;51.258;6.806;2024-01-06T04:55:02;6.90;66.80
4354;DHT22;11018;51.258;6.806;2024-01-06T04:57:27;6.90;66.90
4354;DHT22;11018;51.258;6.806;2024-01-06T04:59:53;6.80;67.20
4354;DHT22;11018;51.258;6.806;2024-01-06T05:02:19;6.80;67.40
4354;DHT22;11018;51.258;6.806;2024-01-06T05:04:44;6.80;67.30
4354;DHT22;11018;51.258;6.806;2024-01-06T05:07:10;6.80;66.20
4354;DHT22;11018;51.258;6.806;2024-01-06T05:09:35;6.80;67.70
4354;DHT22;11018;51.258;6.806;2024-01-06T05:12:01;6.90;67.30
4354;DHT22;11018;51.258;6.806;2024-01-06T05:14:26;6.90;66.70
4354;DHT22;11018;51.258;6.806;2024-01-06T05:16:52;6.90;66.50
4354;DHT22;11018;51.258;6.806;2024-01-06T05:19:18;6.90;66.60
4354;DHT22;11018;51.258;6.806;2024-01-06T05:21:47;6.90;65.00
4354;DHT22;11018;51.258;6.806;2024-01-06T05:24:13;6.90;66.00
4354;DHT22;11018;51.258;6.806;2024-01-06T05:26:38;6.90;64.80
4354;DHT22;11018;51.258;6.806;2024-01-06T05:29:04;6.80;64.60
4354;DHT22;11018;51.258;6.806;2024-01-06T05:31:29;6.90;62.80
4354;DHT22;11018;51.258;6.806;2024-01-06T05:33:55;6.80;61.30
4354;DHT22;11018;51.258;6.806;2024-01-06T05:36:20;6.80;61.40
4354;DHT22;11018;51.258;6.806;2024-01-06T05:38:46;6.80;60.10
4354;DHT22;11018;51.258;6.806;2024-01-06T05:41:11;6.90;59.90
4354;DHT22;11018;51.258;6.806;2024-01-06T05:43:37;6.80;59.70
4354;DHT22;11018;51.258;6.806;2024-01-06T05:46:03;6.80;59.90
4354;DHT22;11018;51.258;6.806;2024-01-06T05:48:29;6.90;59.10
4354;DHT22;11018;51.258;6.806;2024-01-06T05:50:54;7.00;58.20
4354;DHT22;11018;51.258;6.806;2024-01-06T05:53:20;7.00;59.20
4354;DHT22;11018;51.258;6.806;2024-01-06T05:55:45;7.00;58.70
4354;DHT22;11018;51.258;6.806;2024-01-06T05:58:11;6.90;58.80
4354;DHT22;11018;51.258;6.806;2024-01-06T06:00:36;6.80;59.60
4354;DHT22;11018;51.258;6.806;2024-01-06T06:03:02;6.80;59.30
4354;DHT22;11018;51.258;6.806;2024-01-06T06:05:28;6.80;59.50
4354;DHT22;11018;51.258;6.806;2024-01-06T06:07:53;6.90;60.30
4354;DHT22;11018;51.258;6.806;2024-01-06T06:10:19;6.90;59.10
4354;DHT22;11018;51.258;6.806;2024-01-06T06:12:45;6.80;59.80
4354;DHT22;11018;51.258;6.806;2024-01-06T06:15:11;6.80;60.60
4354;DHT22;11018;51.258;6.806;2024-01-06T06:17:37;6.80;60.10
4354;DHT22;11018;51.258;6.806;2024-01-06T06:20:03;6.70;59.00
4354;DHT22;11018;51.258;6.806;2024-01-06T06:22:28;6.70;60.10
4354;DHT22;11018;51.258;6.806;2024-01-06T06:24:58;6.70;60.00
4354;DHT22;11018;51.258;6.806;2024-01-06T06:27:23;6.80;61.20
4354;DHT22;11018;51.258;6.806;2024-01-06T06:29:49;6.70;62.00
4354;DHT22;11018;51.258;6.806;2024-01-06T06:32:15;6.70;63.50
4354;DHT22;11018;51.258;6.806;2024-01-06T06:34:40;6.70;63.60
4354;DHT22;11018;51.258;6.806;2024-01-06T06:37:06;6.60;63.90
4354;DHT22;11018;51.258;6.806;2024-01-06T06:39:32;6.60;64.90
4354;DHT22;11018;51.258;6.806;2024-01-06T06:41:58;6.60;65.50
4354;DHT22;11018;51.258;6.806;2024-01-06T06:44:23;6.60;66.30
4354;DHT22;11018;51.258;6.806;2024-01-06T06:46:49;6.60;66.70
4354;DHT22;11018;51.258;6.806;2024-01-06T06:49:15;6.60;67.30
4354;DHT22;11018;51.258;6.806;2024-01-06T06:51:40;6.70;67.60
4354;DHT22;11018;51.258;6.806;2024-01-06T06:54:12;6.60;66.80
4354;DHT22;11018;51.258;6.806;2024-01-06T06:56:38;6.60;67.30
4354;DHT22;11018;51.258;6.806;2024-01-06T06:59:03;6.60;67.50
4354;DHT22;11018;51.258;6.806;2024-01-06T07:01:30;6.70;67.80
4354;DHT22;11018;51.258;6.806;2024-01-06T07:03:56;6.60;68.20
4354;DHT22;11018;51.258;6.806;2024-01-06T07:06:21;6.50;69.60
4354;DHT22;11018;51.258;6.806;2024-01-06T07:08:47;6.30;70.80
4354;DHT22;11018;51.258;6.806;2024-01-06T07:11:12;6.20;72.60
4354;DHT22;11018;51.258;6.806;2024-01-06T07:13:40;6.20;74.90
4354;DHT22;11018;51.258;6.806;2024-01-06T07:16:06;6.20;75.00
4354;DHT22;11018;51.258;6.806;2024-01-06T07:18:32;6.20;75.40
4354;DHT22;11018;51.258;6.806;2024-01-06T07:20:58;6.20;75.90
4354;DHT22;11018;51.258;6.806;2024-01-06T07:23:23;6.20;76.20
4354;DHT22;11018;51.258;6.806;2024-01-06T07:25:49;6.20;75.50
4354;DHT22;11018;51.258;6.806;2024-01-06T07:28:14;6.20;75.00
4354;DHT22;11018;51.258;6.806;2024-01-06T07:30:40;6.20;75.90
4354;DHT22;11018;51.258;6.806;2024-01-06T07:33:06;6.10;75.10
4354;DHT22;11018;51.258;6.806;2024-01-06T07:35:31;6.10;76.00
4354;DHT22;11018;51.258;6.806;2024-01-06T07:37:57;6.10;76.60
4354;DHT22;11018;51.258;6.806;2024-01-06T07:40:22;6.10;77.00
4354;DHT22;11018;51.258;6.806;2024-01-06T07:42:48;6.10;76.40
4354;DHT22;11018;51.258;6.806;2024-01-06T07:45:14;6.00;74.40
4354;DHT22;11018;51.258;6.806;2024-01-06T07:47:40;6.00;73.60
4354;DHT22;11018;51.258;6.806;2024-01-06T07:50:06;6.00;72.70
4354;DHT22;11018;51.258;6.806;2024-01-06T07:52:31;6.00;70.40
4354;DHT22;11018;51.258;6.806;2024-01-06T07:54:58;5.90;70.70
4354;DHT22;11018;51.258;6.806;2024-01-06T07:57:23;6.00;70.60
4354;DHT22;11018;51.258;6.806;2024-01-06T07:59:50;6.00;70.30
4354;DHT22;11018;51.258;6.806;2024-01-06T08:02:16;6.00;69.60
4354;DHT22;11018;51.258;6.806;2024-01-06T08:04:44;6.00;70.50
4354;DHT22;11018;51.258;6.806;2024-01-06T08:07:10;6.00;68.70
4354;DHT22;11018;51.258;6.806;2024-01-06T08:09:35;6.00;69.40
4354;DHT22;11018;51.258;6.806;2024-01-06T08:12:01;6.00;70.40
4354;DHT22;11018;51.258;6.806;2024-01-06T08:14:28;6.00;70.70
4354;DHT22;11018;51.258;6.806;2024-01-06T08:16:54;6.00;72.00
4354;DHT22;11018;51.258;6.806;2024-01-06T08:19:20;6.00;71.50
4354;DHT22;11018;51.258;6.806;2024-01-06T08:21:45;6.00;72.40
4354;DHT22;11018;51.258;6.806;2024-01-06T08:24:11;6.10;71.10
4354;DHT22;11018;51.258;6.806;2024-01-06T08:26:36;6.10;71.50
4354;DHT22;11018;51.258;6.806;2024-01-06T08:29:02;6.10;69.80
4354;DHT22;11018;51.258;6.806;2024-01-06T08:31:27;6.10;71.60
4354;DHT22;11018;51.258;6.806;2024-01-06T08:33:53;6.20;72.00
4354;DHT22;11018;51.258;6.806;2024-01-06T08:36:18;6.20;73.50
4354;DHT22;11018;51.258;6.806;2024-01-06T08:38:44;6.00;73.90
4354;DHT22;11018;51.258;6.806;2024-01-06T08:41:10;5.90;76.90
4354;DHT22;11018;51.258;6.806;2024-01-06T08:43:35;5.70;79.20
4354;DHT22;11018;51.258;6.806;2024-01-06T08:46:01;5.60;80.40
4354;DHT22;11018;51.258;6.806;2024-01-06T08:48:27;5.60;83.60
4354;DHT22;11018;51.258;6.806;2024-01-06T08:50:53;5.70;83.60
4354;DHT22;11018;51.258;6.806;2024-01-06T08:53:18;5.80;81.50
4354;DHT22;11018;51.258;6.806;2024-01-06T08:55:44;5.80;81.30
4354;DHT22;11018;51.258;6.806;2024-01-06T08:58:09;5.70;78.80
4354;DHT22;11018;51.258;6.806;2024-01-06T09:00:35;5.80;80.70
4354;DHT22;11018;51.258;6.806;2024-01-06T09:03:00;5.90;80.80
4354;DHT22;11018;51.258;6.806;2024-01-06T09:05:26;6.00;79.60
4354;DHT22;11018;51.258;6.806;2024-01-06T09:07:51;6.00;78.20
4354;DHT22;11018;51.258;6.806;2024-01-06T09:10:17;6.00;76.60
4354;DHT22;11018;51.258;6.806;2024-01-06T09:12:43;6.10;76.60
4354;DHT22;11018;51.258;6.806;2024-01-06T09:15:09;6.10;74.60
4354;DHT22;11018;51.258;6.806;2024-01-06T09:17:34;6.10;74.90
4354;DHT22;11018;51.258;6.806;2024-01-06T09:20:00;6.10;74.20
4354;DHT22;11018;51.258;6.806;2024-01-06T09:22:26;6.00;73.90
4354;DHT22;11018;51.258;6.806;2024-01-06T09:24:52;6.00;74.30
4354;DHT22;11018;51.258;6.806;2024-01-06T09:27:18;6.00;74.80
4354;DHT22;11018;51.258;6.806;2024-01-06T09:29:44;6.00;76.00
4354;DHT22;11018;51.258;6.806;2024-01-06T09:32:10;6.10;75.50
4354;DHT22;11018;51.258;6.806;2024-01-06T09:34:35;6.00;75.40
4354;DHT22;11018;51.258;6.806;2024-01-06T09:37:01;5.80;76.30
4354;DHT22;11018;51.258;6.806;2024-01-06T09:39:26;5.80;76.60
4354;DHT22;11018;51.258;6.806;2024-01-06T09:41:52;5.70;77.30
4354;DHT22;11018;51.258;6.806;2024-01-06T09:44:17;5.70;78.50
4354;DHT22;11018;51.258;6.806;2024-01-06T09:46:44;5.70;78.10
4354;DHT22;11018;51.258;6.806;2024-01-06T09:49:10;5.70;79.00
4354;DHT22;11018;51.258;6.806;2024-01-06T09:51:39;5.70;78.20
4354;DHT22;11018;51.258;6.806;2024-01-06T09:54:09;5.60;80.60
4354;DHT22;11018;51.258;6.806;2024-01-06T09:56:35;5.70;80.40
4354;DHT22;11018;51.258;6.806;2024-01-06T09:59:01;5.60;79.30
4354;DHT22;11018;51.258;6.806;2024-01-06T10:01:27;5.70;78.70
4354;DHT22;11018;51.258;6.806;2024-01-06T10:03:53;5.70;78.70
4354;DHT22;11018;51.258;6.806;2024-01-06T10:06:18;5.70;78.60
4354;DHT22;11018;51.258;6.806;2024-01-06T10:08:49;5.70;79.30
4354;DHT22;11018;51.258;6.806;2024-01-06T10:11:15;5.70;78.60
4354;DHT22;11018;51.258;6.806;2024-01-06T10:13:41;5.70;78.80
4354;DHT22;11018;51.258;6.806;2024-01-06T10:16:07;5.60;79.00
4354;DHT22;11018;51.258;6.806;2024-01-06T10:18:32;5.50;79.90
4354;DHT22;11018;51.258;6.806;2024-01-06T10:21:00;5.50;81.10
4354;DHT22;11018;51.258;6.806;2024-01-06T10:23:28;5.50;81.30
4354;DHT22;11018;51.258;6.806;2024-01-06T10:25:55;5.60;82.30
4354;DHT22;11018;51.258;6.806;2024-01-06T10:28:21;5.60;79.70
4354;DHT22;11018;51.258;6.806;2024-01-06T10:30:49;5.50;77.60
4354;DHT22;11018;51.258;6.806;2024-01-06T10:33:15;5.60;76.20
4354;DHT22;11018;51.258;6.806;2024-01-06T10:35:41;5.60;76.10
4354;DHT22;11018;51.258;6.806;2024-01-06T10:38:07;5.60;75.30
4354;DHT22;11018;51.258;6.806;2024-01-06T10:40:33;5.60;74.30
4354;DHT22;11018;51.258;6.806;2024-01-06T10:43:00;5.50;74.00
4354;DHT22;11018;51.258;6.806;2024-01-06T10:45:28;5.60;73.40
4354;DHT22;11018;51.258;6.806;2024-01-06T10:47:55;5.60;72.90
4354;DHT22;11018;51.258;6.806;2024-01-06T10:50:21;5.60;73.70
4354;DHT22;11018;51.258;6.806;2024-01-06T10:52:48;5.70;73.80
4354;DHT22;11018;51.258;6.806;2024-01-06T10:55:15;5.70;73.30
4354;DHT22;11018;51.258;6.806;2024-01-06T10:57:43;5.70;73.80
4354;DHT22;11018;51.258;6.806;2024-01-06T11:00:10;5.70;72.80
4354;DHT22;11018;51.258;6.806;2024-01-06T11:02:37;5.60;73.40
4354;DHT22;11018;51.258;6.806;2024-01-06T11:05:03;5.70;73.80
4354;DHT22;11018;51.258;6.806;2024-01-06T11:07:33;5.60;73.70
4354;DHT22;11018;51.258;6.806;2024-01-06T11:10:07;5.60;73.60
4354;DHT22;11018;51.258;6.806;2024-01-06T11:12:34;5.60;74.10
4354;DHT22;11018;51.258;6.806;2024-01-06T11:15:00;5.50;73.20
4354;DHT22;11018;51.258;6.806;2024-01-06T11:17:51;5.50;72.00
4354;DHT22;11018;51.258;6.806;2024-01-06T11:20:24;5.60;72.20
4354;DHT22;11018;51.258;6.806;2024-01-06T11:22:50;5.50;71.80
4354;DHT22;11018;51.258;6.806;2024-01-06T11:25:21;5.50;71.00
4354;DHT22;11018;51.258;6.806;2024-01-06T11:27:48;5.40;70.70
4354;DHT22;11018;51.258;6.806;2024-01-06T11:30:25;5.40;71.60
4354;DHT22;11018;51.258;6.806;2024-01-06T11:32:52;5.40;70.70
4354;DHT22;11018;51.258;6.806;2024-01-06T11:35:19;5.40;71.00
4354;DHT22;11018;51.258;6.806;2024-01-06T11:40:15;5.40;71.90
4354;DHT22;11018;51.258;6.806;2024-01-06T11:42:42;5.40;70.70
4354;DHT22;11018;51.258;6.806;2024-01-06T11:45:08;5.50;71.40
4354;DHT22;11018;51.258;6.806;2024-01-06T11:47:34;5.40;70.50
4354;DHT22;11018;51.258;6.806;2024-01-06T11:50:01;5.40;71.70
4354;DHT22;11018;51.258;6.806;2024-01-06T11:52:33;5.30;70.70
4354;DHT22;11018;51.258;6.806;2024-01-06T11:54:59;5.20;71.30
4354;DHT22;11018;51.258;6.806;2024-01-06T11:57:29;5.10;71.50
4354;DHT22;11018;51.258;6.806;2024-01-06T11:59:55;5.10;72.70
4354;DHT22;11018;51.258;6.806;2024-01-06T12:02:21;5.00;72.80
4354;DHT22;11018;51.258;6.806;2024-01-06T12:04:54;5.10;73.80
4354;DHT22;11018;51.258;6.806;2024-01-06T12:07:21;5.10;73.00
4354;DHT22;11018;51.258;6.806;2024-01-06T12:09:51;4.90;72.40
4354;DHT22;11018;51.258;6.806;2024-01-06T12:12:25;4.90;74.10
4354;DHT22;11018;51.258;6.806;2024-01-06T12:14:51;5.00;73.00
4354;DHT22;11018;51.258;6.806;2024-01-06T12:17:17;5.00;73.20
4354;DHT22;11018;51.258;6.806;2024-01-06T12:19:42;5.00;72.70
4354;DHT22;11018;51.258;6.806;2024-01-06T12:22:12;5.10;73.20
4354;DHT22;11018;51.258;6.806;2024-01-06T12:24:38;5.10;73.20
4354;DHT22;11018;51.258;6.806;2024-01-06T12:27:07;5.00;73.00
4354;DHT22;11018;51.258;6.806;2024-01-06T12:29:33;5.10;73.70
4354;DHT22;11018;51.258;6.806;2024-01-06T12:32:03;4.90;74.50
4354;DHT22;11018;51.258;6.806;2024-01-06T12:34:28;4.80;76.30
4354;DHT22;11018;51.258;6.806;2024-01-06T12:36:54;4.80;76.10
4354;DHT22;11018;51.258;6.806;2024-01-06T12:39:27;4.80;77.40
4354;DHT22;11018;51.258;6.806;2024-01-06T12:41:54;4.80;76.60
4354;DHT22;11018;51.258;6.806;2024-01-06T12:44:19;4.70;77.90
4354;DHT22;11018;51.258;6.806;2024-01-06T12:46:45;4.70;77.90
4354;DHT22;11018;51.258;6.806;2024-01-06T12:49:10;4.80;79.30
4354;DHT22;11018;51.258;6.806;2024-01-06T12:51:37;4.80;78.50
4354;DHT22;11018;51.258;6.806;2024-01-06T12:54:02;4.80;80.10
4354;DHT22;11018;51.258;6.806;2024-01-06T12:56:28;4.80;79.70
4354;DHT22;11018;51.258;6.806;2024-01-06T12:58:53;4.90;79.80
4354;DHT22;11018;51.258;6.806;2024-01-06T13:01:19;4.90;79.30
4354;DHT22;11018;51.258;6.806;2024-01-06T13:03:45;5.00;78.50
4354;DHT22;11018;51.258;6.806;2024-01-06T13:06:10;5.00;77.80
4354;DHT22;11018;51.258;6.806;2024-01-06T13:08:36;4.80;77.40
4354;DHT22;11018;51.258;6.806;2024-01-06T13:11:02;4.90;78.30
4354;DHT22;11018;51.258;6.806;2024-01-06T13:13:28;4.80;77.00
4354;DHT22;11018;51.258;6.806;2024-01-06T13:15:54;4.80;79.00
4354;DHT22;11018;51.258;6.806;2024-01-06T13:18:19;4.70;78.50
4354;DHT22;11018;51.258;6.806;2024-01-06T13:20:45;4.60;79.00
4354;DHT22;11018;51.258;6.806;2024-01-06T13:23:11;4.50;80.50
4354;DHT22;11018;51.258;6.806;2024-01-06T13:25:39;4.60;80.50
4354;DHT22;11018;51.258;6.806;2024-01-06T13:28:06;4.50;80.90
4354;DHT22;11018;51.258;6.806;2024-01-06T13:30:32;4.50;81.00
4354;DHT22;11018;51.258;6.806;2024-01-06T13:33:00;4.50;81.10
4354;DHT22;11018;51.258;6.806;2024-01-06T13:35:26;4.50;81.60
4354;DHT22;11018;51.258;6.806;2024-01-06T13:37:52;4.50;78.20
4354;DHT22;11018;51.258;6.806;2024-01-06T13:40:18;4.40;78.60
4354;DHT22;11018;51.258;6.806;2024-01-06T13:42:49;4.40;78.20
4354;DHT22;11018;51.258;6.806;2024-01-06T13:45:16;4.40;77.10
4354;DHT22;11018;51.258;6.806;2024-01-06T13:47:42;4.40;76.40
4354;DHT22;11018;51.258;6.806;2024-01-06T13:50:15;4.50;76.60
4354;DHT22;11018;51.258;6.806;2024-01-06T13:52:41;4.60;77.50
4354;DHT22;11018;51.258;6.806;2024-01-06T13:55:07;4.50;74.60
4354;DHT22;11018;51.258;6.806;2024-01-06T13:57:33;4.40;76.90
4354;DHT22;11018;51.258;6.806;2024-01-06T13:59:59;4.40;76.10
4354;DHT22;11018;51.258;6.806;2024-01-06T14:02:25;4.30;76.10
4354;DHT22;11018;51.258;6.806;2024-01-06T14:04:51;4.30;77.20
4354;DHT22;11018;51.258;6.806;2024-01-06T14:07:17;4.40;78.10
4354;DHT22;11018;51.258;6.806;2024-01-06T14:09:47;4.40;78.40
4354;DHT22;11018;51.258;6.806;2024-01-06T14:12:12;4.40;76.10
4354;DHT22;11018;51.258;6.806;2024-01-06T14:17:17;4.10;76.80
4354;DHT22;11018;51.258;6.806;2024-01-06T14:19:43;4.10;78.20
4354;DHT22;11018;51.258;6.806;2024-01-06T14:22:08;4.10;78.20
4354;DHT22;11018;51.258;6.806;2024-01-06T14:24:34;4.10;78.10
4354;DHT22;11018;51.258;6.806;2024-01-06T14:27:01;4.10;78.40
4354;DHT22;11018;51.258;6.806;2024-01-06T14:29:29;4.20;77.60
4354;DHT22;11018;51.258;6.806;2024-01-06T14:31:55;4.20;75.30
4354;DHT22;11018;51.258;6.806;2024-01-06T14:34:21;4.20;74.50
4354;DHT22;11018;51.258;6.806;2024-01-06T14:36:46;4.20;75.10
4354;DHT22;11018;51.258;6.806;2024-01-06T14:39:15;4.30;73.90
4354;DHT22;11018;51.258;6.806;2024-01-06T14:41:40;4.30;73.10
4354;DHT22;11018;51.258;6.806;2024-01-06T14:44:06;4.30;73.90
4354;DHT22;11018;51.258;6.806;2024-01-06T14:46:32;4.20;73.30
4354;DHT22;11018;51.258;6.806;2024-01-06T14:48:59;4.10;73.40
4354;DHT22;11018;51.258;6.806;2024-01-06T14:51:25;4.10;74.50
4354;DHT22;11018;51.258;6.806;2024-01-06T14:53:50;4.10;75.50
4354;DHT22;11018;51.258;6.806;2024-01-06T14:56:16;4.10;75.60
4354;DHT22;11018;51.258;6.806;2024-01-06T14:58:41;4.10;75.10
4354;DHT22;11018;51.258;6.806;2024-01-06T15:01:07;4.20;74.20
4354;DHT22;11018;51.258;6.806;2024-01-06T15:03:32;4.20;74.70
4354;DHT22;11018;51.258;6.806;2024-01-06T15:05:58;4.20;74.40
4354;DHT22;11018;51.258;6.806;2024-01-06T15:08:23;4.30;73.70
4354;DHT22;11018;51.258;6.806;2024-01-06T15:10:49;4.40;72.60
4354;DHT22;11018;51.258;6.806;2024-01-06T15:13:15;4.40;71.20
4354;DHT22;11018;51.258;6.806;2024-01-06T15:15:40;4.50;71.40
4354;DHT22;11018;51.258;6.806;2024-01-06T15:18:06;4.60;70.00
4354;DHT22;11018;51.258;6.806;2024-01-06T15:20:32;4.60;70.80
4354;DHT22;11018;51.258;6.806;2024-01-06T15:22:57;4.60;68.50
4354;DHT22;11018;51.258;6.806;2024-01-06T15:25:23;4.50;69.20
4354;DHT22;11018;51.258;6.806;2024-01-06T15:27:48;4.50;69.90
4354;DHT22;11018;51.258;6.806;2024-01-06T15:30:14;4.50;69.90
4354;DHT22;11018;51.258;6.806;2024-01-06T15:32:41;4.50;68.90
4354;DHT22;11018;51.258;6.806;2024-01-06T15:35:08;4.40;71.10
4354;DHT22;11018;51.258;6.806;2024-01-06T15:37:36;4.40;71.90
4354;DHT22;11018;51.258;6.806;2024-01-06T15:40:02;4.50;71.40
4354;DHT22;11018;51.258;6.806;2024-01-06T15:42:28;4.50;68.20
4354;DHT22;11018;51.258;6.806;2024-01-06T15:44:54;4.30;69.60
4354;DHT22;11018;51.258;6.806;2024-01-06T15:47:20;4.40;70.90
4354;DHT22;11018;51.258;6.806;2024-01-06T15:49:45;4.40;71.20
4354;DHT22;11018;51.258;6.806;2024-01-06T15:52:11;4.20;70.90
4354;DHT22;11018;51.258;6.806;2024-01-06T15:54:37;4.20;71.90
4354;DHT22;11018;51.258;6.806;2024-01-06T15:57:02;4.20;71.50
4354;DHT22;11018;51.258;6.806;2024-01-06T15:59:28;4.30;71.20